Amidon, North Dakota
Current Conditions -  °F | °C
As of 11:56 PM on Thursday 30 Oct 2014 (Local Time) from KDIK Reporting Station
Overcast Overcast  
Wind Chill: 17°   Ceiling: 800
Heat Index: 29°   Visibility: 9mi
Dew Point: 25°   Wind: 16mph
Humidity: 85%   Direction: 140°SE
Pressure: 30.47"   Gusts: NA
Location:  46.48°N, 103.32°W
Report Text: KDIK 310556Z AUTO 14014KT 9SM OVC008 M02/M04 A3047 RMK AO2 SLP347 T10171039 10006 21017 58001
Loading
Personal Weather Stations






























Interactive Weather Map
Tropical Storm Tracking
New forecast layout! Learn more

10-Day Weather Forecast

Advertisements
Track Severe Weather on mobile